createdAt,value
2023-04-30T00:00:02.858Z,25.28
2023-04-30T00:00:33.238Z,25.26
2023-04-30T00:01:03.687Z,25.26
2023-04-30T00:01:34.114Z,25.29
2023-04-30T00:02:04.566Z,25.30
2023-04-30T00:02:35.208Z,25.29
2023-04-30T00:03:05.933Z,25.28
2023-04-30T00:03:36.581Z,25.29
2023-04-30T00:04:07.144Z,25.29
2023-04-30T00:04:37.528Z,25.26
2023-04-30T00:05:07.951Z,25.26
2023-04-30T00:05:38.373Z,25.26
2023-04-30T00:06:08.876Z,25.25
2023-04-30T00:06:39.364Z,25.27
2023-04-30T00:07:09.791Z,25.30
2023-04-30T00:07:40.216Z,25.32
2023-04-30T00:08:10.633Z,25.33
2023-04-30T00:08:41.058Z,25.33
2023-04-30T00:09:11.477Z,25.32
2023-04-30T00:09:41.927Z,25.31
2023-04-30T00:10:12.387Z,25.34
2023-04-30T00:10:42.765Z,25.31
2023-04-30T00:11:13.227Z,25.32
2023-04-30T00:11:43.635Z,25.34
2023-04-30T00:12:14.055Z,25.34
2023-04-30T00:12:44.486Z,25.33
2023-04-30T00:13:14.904Z,25.33
2023-04-30T00:13:45.327Z,25.32
2023-04-30T00:14:15.775Z,25.28
2023-04-30T00:14:46.208Z,25.28
2023-04-30T00:15:16.620Z,25.31
2023-04-30T00:15:47.033Z,25.30
2023-04-30T00:16:17.494Z,25.29
2023-04-30T00:16:47.942Z,25.25
2023-04-30T00:17:18.436Z,25.21
2023-04-30T00:17:48.894Z,25.17
2023-04-30T00:18:19.315Z,25.16
2023-04-30T00:18:49.739Z,25.15
2023-04-30T00:19:20.173Z,25.13
2023-04-30T00:19:50.605Z,25.14
2023-04-30T00:20:21.026Z,25.15
2023-04-30T00:20:51.446Z,25.16
2023-04-30T00:21:21.879Z,25.18
2023-04-30T00:21:52.317Z,25.18
2023-04-30T00:22:22.728Z,25.20
2023-04-30T00:22:53.171Z,25.24
2023-04-30T00:23:23.594Z,25.29
2023-04-30T00:23:54.038Z,25.33
2023-04-30T00:24:24.462Z,25.31
2023-04-30T00:24:54.872Z,25.31
2023-04-30T00:25:25.292Z,25.29
2023-04-30T00:25:55.729Z,25.29
2023-04-30T00:26:26.151Z,25.28
2023-04-30T00:26:56.594Z,25.28
2023-04-30T00:27:27.019Z,25.26
2023-04-30T00:27:57.432Z,25.28
2023-04-30T00:28:27.855Z,25.28
2023-04-30T00:28:58.275Z,25.27
2023-04-30T00:29:28.695Z,25.26
2023-04-30T00:29:59.150Z,25.30
2023-04-30T00:30:29.536Z,25.31
2023-04-30T00:30:59.975Z,25.30
2023-04-30T00:31:30.440Z,25.26
2023-04-30T00:32:00.860Z,25.27
2023-04-30T00:32:31.312Z,25.28
2023-04-30T00:33:01.753Z,25.28
2023-04-30T00:33:32.261Z,25.31
2023-04-30T00:34:02.681Z,25.31
2023-04-30T00:34:33.105Z,25.30
2023-04-30T00:35:03.530Z,25.28
2023-04-30T00:35:33.961Z,25.27
2023-04-30T00:36:04.383Z,25.27
2023-04-30T00:36:34.828Z,25.26
2023-04-30T00:37:05.260Z,25.28
2023-04-30T00:37:35.671Z,25.31
2023-04-30T00:38:06.096Z,25.30
2023-04-30T00:38:36.514Z,25.28
2023-04-30T00:39:06.932Z,25.27
2023-04-30T00:39:37.359Z,25.27
2023-04-30T00:40:07.808Z,25.28
2023-04-30T00:40:38.196Z,25.30
2023-04-30T00:41:08.621Z,25.28
2023-04-30T00:41:39.065Z,25.24
2023-04-30T00:42:09.489Z,25.25
2023-04-30T00:42:39.912Z,25.27
2023-04-30T00:43:10.335Z,25.28
2023-04-30T00:43:40.756Z,25.30
2023-04-30T00:44:11.188Z,25.29
2023-04-30T00:44:41.612Z,25.31
2023-04-30T00:45:12.073Z,25.31
2023-04-30T00:45:42.502Z,25.31
2023-04-30T00:46:12.893Z,25.33
2023-04-30T00:46:43.324Z,25.32
2023-04-30T00:47:13.742Z,25.31
2023-04-30T00:47:44.215Z,25.28
2023-04-30T00:48:14.593Z,25.26
2023-04-30T00:48:45.013Z,25.25
2023-04-30T00:49:15.430Z,25.26
2023-04-30T00:49:45.881Z,25.27
2023-04-30T00:50:16.412Z,25.27
2023-04-30T00:50:46.778Z,25.30
2023-04-30T00:51:17.209Z,25.32
2023-04-30T00:51:47.686Z,25.32
2023-04-30T00:52:18.104Z,25.32
2023-04-30T00:52:48.512Z,25.31
2023-04-30T00:53:18.927Z,25.29
2023-04-30T00:53:49.350Z,25.26
2023-04-30T00:54:19.799Z,25.23
2023-04-30T00:54:50.221Z,25.23
2023-04-30T00:55:20.655Z,25.24
2023-04-30T00:55:51.074Z,25.23
2023-04-30T00:56:21.493Z,25.23
2023-04-30T00:56:51.940Z,25.23
2023-04-30T00:57:22.368Z,25.24
2023-04-30T00:57:52.786Z,25.24
2023-04-30T00:58:23.219Z,25.26
2023-04-30T00:58:53.637Z,25.28
2023-04-30T00:59:24.066Z,25.28
2023-04-30T00:59:54.763Z,25.30
2023-04-30T01:00:25.332Z,25.32
2023-04-30T01:00:55.768Z,25.32
2023-04-30T01:01:26.227Z,25.28
2023-04-30T01:01:56.705Z,25.26
2023-04-30T01:02:27.161Z,25.24
2023-04-30T01:02:57.667Z,25.24
2023-04-30T01:03:28.262Z,25.25
2023-04-30T01:03:58.694Z,25.27
2023-04-30T01:04:29.120Z,25.29
2023-04-30T01:04:59.550Z,25.33
2023-04-30T01:05:29.968Z,25.32
2023-04-30T01:06:00.418Z,25.29
2023-04-30T01:06:30.884Z,25.27
2023-04-30T01:07:01.319Z,25.26
2023-04-30T01:07:31.724Z,25.24
2023-04-30T01:08:02.143Z,25.23
2023-04-30T01:08:32.563Z,25.25
2023-04-30T01:09:03.016Z,25.25
2023-04-30T01:09:33.452Z,25.26
2023-04-30T01:10:03.878Z,25.26
2023-04-30T01:10:34.285Z,25.24
2023-04-30T01:11:04.707Z,25.22
2023-04-30T01:11:35.127Z,25.20
2023-04-30T01:12:05.571Z,25.18
2023-04-30T01:12:35.994Z,25.16
2023-04-30T01:13:06.420Z,25.15
2023-04-30T01:13:36.843Z,25.16
2023-04-30T01:14:07.264Z,25.17
2023-04-30T01:14:37.692Z,25.18
2023-04-30T01:15:08.106Z,25.18
2023-04-30T01:15:38.576Z,25.19
2023-04-30T01:16:09.026Z,25.18
2023-04-30T01:16:39.446Z,25.20
2023-04-30T01:17:09.869Z,25.20
2023-04-30T01:17:40.319Z,25.20
2023-04-30T01:18:10.808Z,25.20
2023-04-30T01:18:41.311Z,25.16
2023-04-30T01:19:11.820Z,25.17
2023-04-30T01:19:42.279Z,25.19
2023-04-30T01:20:12.740Z,25.20
2023-04-30T01:20:43.141Z,25.22
2023-04-30T01:21:13.560Z,25.23
2023-04-30T01:21:43.993Z,25.24
2023-04-30T01:22:14.436Z,25.23
2023-04-30T01:22:44.865Z,25.23
2023-04-30T01:23:15.308Z,25.27
2023-04-30T01:23:45.724Z,25.27
2023-04-30T01:24:16.148Z,25.24
2023-04-30T01:24:46.570Z,25.23
2023-04-30T01:25:16.991Z,25.24
2023-04-30T01:25:47.412Z,25.23
2023-04-30T01:26:17.845Z,25.23
2023-04-30T01:26:48.276Z,25.23
2023-04-30T01:27:18.717Z,25.22
2023-04-30T01:27:49.159Z,25.23
2023-04-30T01:28:19.563Z,25.23
2023-04-30T01:28:49.990Z,25.22
2023-04-30T01:29:20.435Z,25.22
2023-04-30T01:29:50.856Z,25.23
2023-04-30T01:30:21.283Z,25.20
2023-04-30T01:30:51.740Z,25.20
2023-04-30T01:31:22.139Z,25.20
2023-04-30T01:31:52.593Z,25.21
2023-04-30T01:32:23.070Z,25.23
2023-04-30T01:32:53.575Z,25.23
2023-04-30T01:33:23.953Z,25.21
2023-04-30T01:33:54.388Z,25.20
2023-04-30T01:34:24.828Z,25.20
2023-04-30T01:34:55.239Z,25.20
2023-04-30T01:35:25.664Z,25.19
2023-04-30T01:35:56.110Z,25.21
2023-04-30T01:36:26.517Z,25.18
2023-04-30T01:36:56.935Z,25.17
2023-04-30T01:37:27.373Z,25.17
2023-04-30T01:37:57.791Z,25.17
2023-04-30T01:38:28.215Z,25.17
2023-04-30T01:38:58.636Z,25.17
2023-04-30T01:39:29.064Z,25.16
2023-04-30T01:39:59.479Z,25.17
2023-04-30T01:40:29.928Z,25.17
2023-04-30T01:41:00.362Z,25.16
2023-04-30T01:41:30.783Z,25.15
2023-04-30T01:42:01.193Z,25.17
2023-04-30T01:42:31.630Z,25.21
2023-04-30T01:43:02.048Z,25.23
2023-04-30T01:43:32.474Z,25.23
2023-04-30T01:44:02.891Z,25.22
2023-04-30T01:44:33.347Z,25.20
2023-04-30T01:45:03.776Z,25.20
2023-04-30T01:45:34.216Z,25.19
2023-04-30T01:46:04.749Z,25.20
2023-04-30T01:46:35.185Z,25.20
2023-04-30T01:47:05.567Z,25.21
2023-04-30T01:47:36.040Z,25.20
2023-04-30T01:48:06.452Z,25.19
2023-04-30T01:48:36.847Z,25.21
2023-04-30T01:49:07.278Z,25.18
2023-04-30T01:49:37.725Z,25.23
2023-04-30T01:50:08.132Z,25.23
2023-04-30T01:50:38.588Z,25.24
2023-04-30T01:51:08.970Z,25.23
2023-04-30T01:51:39.393Z,25.21
2023-04-30T01:52:09.806Z,25.20
2023-04-30T01:52:40.252Z,25.20
2023-04-30T01:53:10.678Z,25.20
2023-04-30T01:53:41.099Z,25.18
2023-04-30T01:54:11.522Z,25.22
2023-04-30T01:54:41.950Z,25.21
2023-04-30T01:55:12.383Z,25.21
2023-04-30T01:55:42.789Z,25.23
2023-04-30T01:56:13.212Z,25.22
2023-04-30T01:56:43.648Z,25.21
2023-04-30T01:57:14.064Z,25.20
2023-04-30T01:57:44.549Z,25.19
2023-04-30T01:58:14.979Z,25.18
2023-04-30T01:58:45.403Z,25.20
2023-04-30T01:59:15.830Z,25.19
2023-04-30T01:59:46.246Z,25.20
2023-04-30T02:00:16.673Z,25.21
2023-04-30T02:00:47.101Z,25.21
2023-04-30T02:01:17.653Z,25.20
2023-04-30T02:01:48.036Z,25.21
2023-04-30T02:02:18.450Z,25.21
2023-04-30T02:02:48.952Z,25.18
2023-04-30T02:03:19.497Z,25.16
2023-04-30T02:03:50.158Z,25.15
2023-04-30T02:04:20.602Z,25.14
2023-04-30T02:04:51.023Z,25.13
2023-04-30T02:05:21.444Z,25.15
2023-04-30T02:05:51.870Z,25.17
2023-04-30T02:06:22.328Z,25.17
2023-04-30T02:06:52.712Z,25.18
2023-04-30T02:07:23.144Z,25.16
2023-04-30T02:07:53.560Z,25.16
2023-04-30T02:08:23.985Z,25.16
2023-04-30T02:08:54.412Z,25.18
2023-04-30T02:09:24.830Z,25.20
2023-04-30T02:09:55.624Z,25.21
2023-04-30T02:10:26.186Z,25.21
2023-04-30T02:10:56.621Z,25.21
2023-04-30T02:11:27.028Z,25.19
2023-04-30T02:11:57.448Z,25.18
2023-04-30T02:12:27.883Z,25.18
2023-04-30T02:12:58.313Z,25.18
2023-04-30T02:13:28.749Z,25.17
2023-04-30T02:13:59.165Z,25.16
2023-04-30T02:14:29.582Z,25.17
2023-04-30T02:15:00.016Z,25.20
2023-04-30T02:15:30.440Z,25.20
2023-04-30T02:16:00.875Z,25.20
2023-04-30T02:16:31.392Z,25.20
2023-04-30T02:17:01.779Z,25.19
2023-04-30T02:17:32.200Z,25.18
2023-04-30T02:18:02.743Z,25.17
2023-04-30T02:18:33.182Z,25.18
2023-04-30T02:19:03.589Z,25.16
2023-04-30T02:19:34.013Z,25.17
2023-04-30T02:20:04.440Z,25.20
2023-04-30T02:20:34.861Z,25.20
2023-04-30T02:21:05.283Z,25.19
2023-04-30T02:21:35.701Z,25.22
2023-04-30T02:22:06.135Z,25.20
2023-04-30T02:22:36.561Z,25.16
2023-04-30T02:23:07.003Z,25.15
2023-04-30T02:23:37.425Z,25.14
2023-04-30T02:24:07.852Z,25.15
2023-04-30T02:24:38.268Z,25.16
2023-04-30T02:25:08.694Z,25.16
2023-04-30T02:25:39.145Z,25.13
2023-04-30T02:26:09.556Z,25.13
2023-04-30T02:26:39.966Z,25.13
2023-04-30T02:27:10.413Z,25.14
2023-04-30T02:27:40.843Z,25.17
2023-04-30T02:28:11.269Z,25.20
2023-04-30T02:28:41.695Z,25.21
2023-04-30T02:29:12.135Z,25.20
2023-04-30T02:29:42.554Z,25.21
2023-04-30T02:30:12.980Z,25.23
2023-04-30T02:30:43.396Z,25.23
2023-04-30T02:31:13.854Z,25.22
2023-04-30T02:31:44.288Z,25.22
2023-04-30T02:32:14.678Z,25.20
2023-04-30T02:32:45.139Z,25.22
2023-04-30T02:33:15.529Z,25.21
2023-04-30T02:33:45.958Z,25.20
2023-04-30T02:34:16.394Z,25.18
2023-04-30T02:34:46.824Z,25.18
2023-04-30T02:35:17.232Z,25.20
2023-04-30T02:35:47.658Z,25.20
2023-04-30T02:36:18.078Z,25.20
2023-04-30T02:36:48.510Z,25.17
2023-04-30T02:37:18.937Z,25.17
2023-04-30T02:37:49.379Z,25.17
2023-04-30T02:38:19.793Z,25.19
2023-04-30T02:38:50.212Z,25.19
2023-04-30T02:39:20.658Z,25.17
2023-04-30T02:39:51.085Z,25.15
2023-04-30T02:40:21.516Z,25.16
2023-04-30T02:40:51.939Z,25.14
2023-04-30T02:41:22.362Z,25.17
2023-04-30T02:41:52.796Z,25.18
2023-04-30T02:42:23.214Z,25.18
2023-04-30T02:42:53.636Z,25.18
2023-04-30T02:43:24.069Z,25.22
2023-04-30T02:43:54.503Z,25.22
2023-04-30T02:44:24.927Z,25.20
2023-04-30T02:44:55.344Z,25.18
2023-04-30T02:45:25.818Z,25.21
2023-04-30T02:45:56.250Z,25.22
2023-04-30T02:46:26.628Z,25.21
2023-04-30T02:46:57.068Z,25.20
2023-04-30T02:47:27.516Z,25.18
2023-04-30T02:47:57.964Z,25.16
2023-04-30T02:48:28.363Z,25.16
2023-04-30T02:48:58.781Z,25.17
2023-04-30T02:49:29.203Z,25.17
2023-04-30T02:49:59.626Z,25.15
2023-04-30T02:50:30.051Z,25.15
2023-04-30T02:51:00.466Z,25.18
2023-04-30T02:51:30.900Z,25.20
2023-04-30T02:52:01.334Z,25.18
2023-04-30T02:52:31.747Z,25.18
2023-04-30T02:53:02.217Z,25.21
2023-04-30T02:53:32.610Z,25.20
2023-04-30T02:54:03.035Z,25.22
2023-04-30T02:54:33.461Z,25.22
2023-04-30T02:55:03.888Z,25.21
2023-04-30T02:55:34.317Z,25.20
2023-04-30T02:56:04.734Z,25.20
2023-04-30T02:56:35.207Z,25.18
2023-04-30T02:57:05.630Z,25.18
2023-04-30T02:57:36.051Z,25.20
2023-04-30T02:58:06.472Z,25.22
2023-04-30T02:58:36.900Z,25.22
2023-04-30T02:59:07.332Z,25.21
2023-04-30T02:59:37.755Z,25.20
2023-04-30T03:00:08.184Z,25.20
2023-04-30T03:00:38.604Z,25.17
2023-04-30T03:01:09.066Z,25.16
2023-04-30T03:01:39.537Z,25.16
2023-04-30T03:02:10.042Z,25.18
2023-04-30T03:02:40.539Z,25.21
2023-04-30T03:03:11.204Z,25.21
2023-04-30T03:03:41.836Z,25.21
2023-04-30T03:04:12.226Z,25.19
2023-04-30T03:04:42.672Z,25.17
2023-04-30T03:05:13.082Z,25.16
2023-04-30T03:05:43.500Z,25.16
2023-04-30T03:06:13.972Z,25.16
2023-04-30T03:06:44.418Z,25.17
2023-04-30T03:07:14.814Z,25.18
2023-04-30T03:07:45.243Z,25.15
2023-04-30T03:08:15.655Z,25.15
2023-04-30T03:08:46.088Z,25.16
2023-04-30T03:09:16.520Z,25.17
2023-04-30T03:09:46.955Z,25.18
2023-04-30T03:10:17.366Z,25.18
2023-04-30T03:10:47.796Z,25.17
2023-04-30T03:11:18.217Z,25.18
2023-04-30T03:11:48.648Z,25.20
2023-04-30T03:12:19.069Z,25.17
2023-04-30T03:12:49.509Z,25.17
2023-04-30T03:13:19.936Z,25.18
2023-04-30T03:13:50.362Z,25.18
2023-04-30T03:14:20.785Z,25.17
2023-04-30T03:14:51.207Z,25.16
2023-04-30T03:15:21.653Z,25.15
2023-04-30T03:15:52.129Z,25.16
2023-04-30T03:16:22.588Z,25.15
2023-04-30T03:16:53.013Z,25.16
2023-04-30T03:17:23.531Z,25.17
2023-04-30T03:17:54.017Z,25.16
2023-04-30T03:18:24.431Z,25.18
2023-04-30T03:18:54.868Z,25.17
2023-04-30T03:19:25.447Z,25.17
2023-04-30T03:19:56.245Z,25.16
2023-04-30T03:20:26.799Z,25.15
2023-04-30T03:20:57.207Z,25.16
2023-04-30T03:21:27.634Z,25.17
2023-04-30T03:21:58.048Z,25.18
2023-04-30T03:22:28.475Z,25.17
2023-04-30T03:22:58.893Z,25.17
2023-04-30T03:23:29.322Z,25.17
2023-04-30T03:23:59.767Z,25.16
2023-04-30T03:24:30.191Z,25.15
2023-04-30T03:25:00.603Z,25.16
2023-04-30T03:25:31.025Z,25.15
2023-04-30T03:26:01.451Z,25.15
2023-04-30T03:26:31.932Z,25.16
2023-04-30T03:27:02.314Z,25.17
2023-04-30T03:27:32.740Z,25.16
2023-04-30T03:28:03.161Z,25.16
2023-04-30T03:28:33.581Z,25.15
2023-04-30T03:29:04.039Z,25.17
2023-04-30T03:29:34.447Z,25.16
2023-04-30T03:30:04.874Z,25.14
2023-04-30T03:30:35.297Z,25.16
2023-04-30T03:31:05.811Z,25.15
2023-04-30T03:31:36.260Z,25.15
2023-04-30T03:32:06.674Z,25.15
2023-04-30T03:32:37.150Z,25.16
2023-04-30T03:33:07.591Z,25.14
2023-04-30T03:33:38.082Z,25.13
2023-04-30T03:34:08.508Z,25.13
2023-04-30T03:34:38.927Z,25.16
2023-04-30T03:35:09.355Z,25.16
2023-04-30T03:35:39.771Z,25.14
2023-04-30T03:36:10.192Z,25.12
2023-04-30T03:36:40.612Z,25.12
2023-04-30T03:37:11.054Z,25.12
2023-04-30T03:37:41.486Z,25.11
2023-04-30T03:38:11.903Z,25.11
2023-04-30T03:38:42.342Z,25.12
2023-04-30T03:39:12.756Z,25.13
2023-04-30T03:39:43.181Z,25.13
2023-04-30T03:40:13.602Z,25.13
2023-04-30T03:40:44.024Z,25.13
2023-04-30T03:41:14.447Z,25.13
2023-04-30T03:41:44.874Z,25.11
2023-04-30T03:42:15.293Z,25.14
2023-04-30T03:42:45.721Z,25.15
2023-04-30T03:43:16.148Z,25.14
2023-04-30T03:43:46.567Z,25.16
2023-04-30T03:44:17.007Z,25.15
2023-04-30T03:44:47.425Z,25.16
2023-04-30T03:45:17.863Z,25.15
2023-04-30T03:45:48.318Z,25.16
2023-04-30T03:46:18.757Z,25.16
2023-04-30T03:46:49.156Z,25.15
2023-04-30T03:47:19.576Z,25.15
2023-04-30T03:47:50.099Z,25.14
2023-04-30T03:48:20.499Z,25.17
2023-04-30T03:48:50.914Z,25.15
2023-04-30T03:49:21.356Z,25.15
2023-04-30T03:49:51.965Z,25.14
2023-04-30T03:50:22.404Z,25.16
2023-04-30T03:50:52.827Z,25.15
2023-04-30T03:51:23.250Z,25.17
2023-04-30T03:51:53.674Z,25.17
2023-04-30T03:52:24.090Z,25.15
2023-04-30T03:52:54.512Z,25.15
2023-04-30T03:53:24.954Z,25.17
2023-04-30T03:53:55.366Z,25.17
2023-04-30T03:54:25.811Z,25.16
2023-04-30T03:54:56.233Z,25.15
2023-04-30T03:55:26.656Z,25.15
2023-04-30T03:55:57.080Z,25.16
2023-04-30T03:56:27.506Z,25.15
2023-04-30T03:56:57.927Z,25.15
2023-04-30T03:57:28.349Z,25.15
2023-04-30T03:57:58.768Z,25.16
2023-04-30T03:58:29.200Z,25.16
2023-04-30T03:58:59.633Z,25.15
2023-04-30T03:59:30.067Z,25.15
2023-04-30T04:00:00.508Z,25.17
2023-04-30T04:00:30.917Z,25.18
2023-04-30T04:01:01.330Z,25.15
2023-04-30T04:01:31.789Z,25.16
2023-04-30T04:02:02.205Z,25.16
2023-04-30T04:02:32.703Z,25.15
2023-04-30T04:03:03.232Z,25.13
2023-04-30T04:03:33.656Z,25.15
2023-04-30T04:04:04.089Z,25.16
2023-04-30T04:04:34.497Z,25.15
2023-04-30T04:05:04.940Z,25.14
2023-04-30T04:05:35.366Z,25.15
2023-04-30T04:06:05.880Z,25.16
2023-04-30T04:06:36.338Z,25.17
2023-04-30T04:07:06.751Z,25.15
2023-04-30T04:07:37.178Z,25.14
2023-04-30T04:08:07.644Z,25.16
2023-04-30T04:08:38.081Z,25.16
2023-04-30T04:09:08.470Z,25.14
2023-04-30T04:09:38.901Z,25.13
2023-04-30T04:10:09.345Z,25.13
2023-04-30T04:10:39.758Z,25.13
2023-04-30T04:11:10.173Z,25.13
2023-04-30T04:11:40.622Z,25.13
2023-04-30T04:12:11.024Z,25.14
2023-04-30T04:12:41.446Z,25.16
2023-04-30T04:13:11.873Z,25.17
2023-04-30T04:13:42.289Z,25.18
2023-04-30T04:14:12.711Z,25.17
2023-04-30T04:14:43.154Z,25.15
2023-04-30T04:15:13.627Z,25.14
2023-04-30T04:15:44.078Z,25.13
2023-04-30T04:16:14.573Z,25.14
2023-04-30T04:16:44.961Z,25.15
2023-04-30T04:17:15.383Z,25.15
2023-04-30T04:17:45.889Z,25.15
2023-04-30T04:18:16.285Z,25.16
2023-04-30T04:18:46.692Z,25.16
2023-04-30T04:19:17.127Z,25.17
2023-04-30T04:19:47.563Z,25.14
2023-04-30T04:20:17.994Z,25.12
2023-04-30T04:20:48.414Z,25.13
2023-04-30T04:21:18.854Z,25.13
2023-04-30T04:21:49.273Z,25.14
2023-04-30T04:22:19.704Z,25.16
2023-04-30T04:22:50.128Z,25.15
2023-04-30T04:23:20.556Z,25.16
2023-04-30T04:23:50.995Z,25.17
2023-04-30T04:24:21.413Z,25.17
2023-04-30T04:24:51.856Z,25.15
2023-04-30T04:25:22.283Z,25.15
2023-04-30T04:25:52.707Z,25.15
2023-04-30T04:26:23.132Z,25.16
2023-04-30T04:26:53.570Z,25.14
2023-04-30T04:27:23.977Z,25.13
2023-04-30T04:27:54.420Z,25.12
2023-04-30T04:28:24.832Z,25.14
2023-04-30T04:28:55.254Z,25.17
2023-04-30T04:29:25.674Z,25.17
2023-04-30T04:29:56.298Z,25.20
2023-04-30T04:30:26.802Z,25.20
2023-04-30T04:30:57.229Z,25.21
2023-04-30T04:31:27.678Z,25.23
2023-04-30T04:31:58.156Z,25.27
2023-04-30T04:32:28.694Z,25.30
2023-04-30T04:32:59.121Z,25.30
2023-04-30T04:33:29.545Z,25.28
2023-04-30T04:33:59.956Z,25.26
2023-04-30T04:34:30.375Z,25.24
2023-04-30T04:35:00.805Z,25.24
2023-04-30T04:35:31.228Z,25.24
2023-04-30T04:36:01.652Z,25.22
2023-04-30T04:36:32.096Z,25.22
2023-04-30T04:37:02.505Z,25.22
2023-04-30T04:37:32.925Z,25.23
2023-04-30T04:38:03.381Z,25.22
2023-04-30T04:38:33.788Z,25.21
2023-04-30T04:39:04.217Z,25.18
2023-04-30T04:39:34.641Z,25.20
2023-04-30T04:40:05.079Z,25.20
2023-04-30T04:40:35.498Z,25.20
2023-04-30T04:41:05.910Z,25.19
2023-04-30T04:41:36.333Z,25.20
2023-04-30T04:42:06.781Z,25.20
2023-04-30T04:42:37.197Z,25.21
2023-04-30T04:43:07.626Z,25.21
2023-04-30T04:43:38.043Z,25.20
2023-04-30T04:44:08.464Z,25.20
2023-04-30T04:44:38.915Z,25.21
2023-04-30T04:45:09.361Z,25.21
2023-04-30T04:45:39.788Z,25.22
2023-04-30T04:46:12.286Z,25.22
2023-04-30T04:46:44.192Z,25.23
2023-04-30T04:47:14.566Z,25.24
2023-04-30T04:47:45.060Z,25.23
2023-04-30T04:48:15.511Z,25.23
2023-04-30T04:48:45.936Z,25.25
2023-04-30T04:49:16.340Z,25.25
2023-04-30T04:49:46.769Z,25.26
2023-04-30T04:50:17.215Z,25.25
2023-04-30T04:50:47.634Z,25.24
2023-04-30T04:51:18.053Z,25.23
2023-04-30T04:51:48.474Z,25.25
2023-04-30T04:52:18.901Z,25.28
2023-04-30T04:52:49.326Z,25.28
2023-04-30T04:53:19.761Z,25.27
2023-04-30T04:53:50.192Z,25.28
2023-04-30T04:54:20.612Z,25.30
2023-04-30T04:54:51.031Z,25.31
2023-04-30T04:55:21.474Z,25.31
2023-04-30T04:55:51.892Z,25.31
2023-04-30T04:56:22.314Z,25.29
2023-04-30T04:56:52.749Z,25.31
2023-04-30T04:57:23.186Z,25.30
2023-04-30T04:57:53.620Z,25.29
2023-04-30T04:58:24.044Z,25.28
2023-04-30T04:58:54.473Z,25.29
2023-04-30T04:59:24.895Z,25.27
2023-04-30T04:59:55.575Z,25.27
2023-04-30T05:00:26.262Z,25.26
2023-04-30T05:00:56.687Z,25.26
2023-04-30T05:01:27.156Z,25.28
2023-04-30T05:01:57.648Z,25.29
2023-04-30T05:02:28.109Z,25.30
2023-04-30T05:02:58.645Z,25.31
2023-04-30T05:03:29.191Z,25.30
2023-04-30T05:04:00.011Z,25.29
2023-04-30T05:04:30.517Z,25.28
2023-04-30T05:05:00.943Z,25.27
2023-04-30T05:05:31.384Z,25.27
2023-04-30T05:06:01.891Z,25.27
2023-04-30T05:06:32.350Z,25.28
2023-04-30T05:07:02.877Z,25.27
2023-04-30T05:07:33.302Z,25.27
2023-04-30T05:08:03.717Z,25.28
2023-04-30T05:08:34.152Z,25.31
2023-04-30T05:09:04.604Z,25.33
2023-04-30T05:09:35.032Z,25.32
2023-04-30T05:10:05.458Z,25.31
2023-04-30T05:10:35.881Z,25.32
2023-04-30T05:11:06.301Z,25.34
2023-04-30T05:11:36.727Z,25.33
2023-04-30T05:12:07.152Z,25.32
2023-04-30T05:12:37.607Z,25.33
2023-04-30T05:13:08.014Z,25.34
2023-04-30T05:13:38.430Z,25.32
2023-04-30T05:14:08.857Z,25.32
2023-04-30T05:14:39.271Z,25.33
2023-04-30T05:15:09.716Z,25.34
2023-04-30T05:15:40.128Z,25.35
2023-04-30T05:16:10.557Z,25.37
2023-04-30T05:16:41.032Z,25.35
2023-04-30T05:17:11.422Z,25.35
2023-04-30T05:17:41.886Z,25.37
2023-04-30T05:18:12.273Z,25.36
2023-04-30T05:18:42.695Z,25.36
2023-04-30T05:19:13.135Z,25.37
2023-04-30T05:19:43.534Z,25.38
2023-04-30T05:20:13.960Z,25.35
2023-04-30T05:20:44.416Z,25.34
2023-04-30T05:21:14.842Z,25.34
2023-04-30T05:21:45.276Z,25.32
2023-04-30T05:22:15.686Z,25.31
2023-04-30T05:22:46.126Z,25.29
2023-04-30T05:23:16.533Z,25.30
2023-04-30T05:23:46.950Z,25.34
2023-04-30T05:24:17.386Z,25.35
2023-04-30T05:24:47.812Z,25.35
2023-04-30T05:25:18.236Z,25.33
2023-04-30T05:25:48.661Z,25.31
2023-04-30T05:26:19.091Z,25.32
2023-04-30T05:26:49.515Z,25.32
2023-04-30T05:27:19.937Z,25.33
2023-04-30T05:27:50.358Z,25.33
2023-04-30T05:28:20.807Z,25.32
2023-04-30T05:28:51.227Z,25.33
2023-04-30T05:29:21.654Z,25.35
2023-04-30T05:29:52.285Z,25.35
2023-04-30T05:30:22.788Z,25.34
2023-04-30T05:30:53.228Z,25.36
2023-04-30T05:31:23.693Z,25.38
2023-04-30T05:31:54.131Z,25.39
2023-04-30T05:32:24.537Z,25.41
2023-04-30T05:32:55.036Z,25.41
2023-04-30T05:33:25.416Z,25.42
2023-04-30T05:33:55.850Z,25.41
2023-04-30T05:34:26.280Z,25.41
2023-04-30T05:34:56.679Z,25.41
2023-04-30T05:35:27.107Z,25.41
2023-04-30T05:35:57.554Z,25.39
2023-04-30T05:36:27.964Z,25.37
2023-04-30T05:36:58.387Z,25.38
2023-04-30T05:37:28.804Z,25.39
2023-04-30T05:37:59.228Z,25.38
2023-04-30T05:38:29.680Z,25.38
2023-04-30T05:39:00.072Z,25.38
2023-04-30T05:39:30.493Z,25.37
2023-04-30T05:40:00.916Z,25.37
2023-04-30T05:40:31.337Z,25.38
2023-04-30T05:41:01.773Z,25.37
2023-04-30T05:41:32.187Z,25.37
2023-04-30T05:42:02.618Z,25.38
2023-04-30T05:42:33.041Z,25.37
2023-04-30T05:43:03.489Z,25.38
2023-04-30T05:43:33.905Z,25.38
2023-04-30T05:44:04.320Z,25.38
2023-04-30T05:44:34.741Z,25.39
2023-04-30T05:45:05.232Z,25.39
2023-04-30T05:45:35.619Z,25.40
2023-04-30T05:46:06.307Z,25.41
2023-04-30T05:46:36.886Z,25.40
2023-04-30T05:47:07.301Z,25.40
2023-04-30T05:47:37.745Z,25.41
2023-04-30T05:48:08.206Z,25.39
2023-04-30T05:48:38.620Z,25.37
2023-04-30T05:49:09.037Z,25.39
2023-04-30T05:49:39.488Z,25.39
2023-04-30T05:50:09.896Z,25.38
2023-04-30T05:50:40.314Z,25.41
2023-04-30T05:51:10.848Z,25.44
2023-04-30T05:51:41.256Z,25.44
2023-04-30T05:52:11.684Z,25.45
2023-04-30T05:52:42.128Z,25.44
2023-04-30T05:53:12.556Z,25.44
2023-04-30T05:53:42.982Z,25.43
2023-04-30T05:54:13.439Z,25.43
2023-04-30T05:54:43.834Z,25.45
2023-04-30T05:55:14.260Z,25.45
2023-04-30T05:55:44.684Z,25.45
2023-04-30T05:56:15.112Z,25.46
2023-04-30T05:56:45.546Z,25.47
2023-04-30T05:57:15.975Z,25.49
2023-04-30T05:57:46.401Z,25.49
2023-04-30T05:58:16.822Z,25.48
2023-04-30T05:58:47.266Z,25.47
2023-04-30T05:59:17.677Z,25.47
2023-04-30T05:59:48.102Z,25.47
2023-04-30T06:00:18.518Z,25.50
2023-04-30T06:00:48.939Z,25.48
2023-04-30T06:01:19.396Z,25.50
2023-04-30T06:01:49.911Z,25.50
2023-04-30T06:02:20.302Z,25.51
2023-04-30T06:02:50.732Z,25.53
2023-04-30T06:03:21.210Z,25.52
2023-04-30T06:03:51.615Z,25.57
2023-04-30T06:04:22.045Z,25.57
2023-04-30T06:04:52.550Z,25.57
2023-04-30T06:05:23.025Z,25.58
2023-04-30T06:05:53.415Z,25.58
2023-04-30T06:06:23.923Z,25.61
2023-04-30T06:06:54.304Z,25.60
2023-04-30T06:07:24.753Z,25.60
2023-04-30T06:07:55.157Z,25.60
2023-04-30T06:08:25.583Z,25.58
2023-04-30T06:08:56.005Z,25.58
2023-04-30T06:09:26.433Z,25.59
2023-04-30T06:09:57.159Z,25.60
2023-04-30T06:10:27.665Z,25.63
2023-04-30T06:10:58.054Z,25.63
2023-04-30T06:11:28.498Z,25.63
2023-04-30T06:11:58.923Z,25.64
2023-04-30T06:12:29.343Z,25.65
2023-04-30T06:12:59.774Z,25.66
2023-04-30T06:13:30.194Z,25.67
2023-04-30T06:14:00.635Z,25.66
2023-04-30T06:14:31.057Z,25.68
2023-04-30T06:15:01.478Z,25.70
2023-04-30T06:15:31.905Z,25.70
2023-04-30T06:16:02.363Z,25.70
2023-04-30T06:16:32.987Z,25.72
2023-04-30T06:17:03.422Z,25.71
2023-04-30T06:17:33.957Z,25.74
2023-04-30T06:18:04.411Z,25.73
2023-04-30T06:18:34.853Z,25.74
2023-04-30T06:19:05.275Z,25.76
2023-04-30T06:19:35.693Z,25.75
2023-04-30T06:20:06.153Z,25.73
2023-04-30T06:20:36.554Z,25.73
2023-04-30T06:21:06.986Z,25.76
2023-04-30T06:21:37.403Z,25.76
2023-04-30T06:22:07.825Z,25.76
2023-04-30T06:22:38.257Z,25.76
2023-04-30T06:23:08.665Z,25.79
2023-04-30T06:23:39.085Z,25.79
2023-04-30T06:24:09.514Z,25.79
2023-04-30T06:24:39.946Z,25.79
2023-04-30T06:25:10.375Z,25.80
2023-04-30T06:25:40.803Z,25.82
2023-04-30T06:26:11.230Z,25.83
2023-04-30T06:26:41.661Z,25.81
2023-04-30T06:27:12.091Z,25.81
2023-04-30T06:27:42.521Z,25.81
2023-04-30T06:28:12.939Z,25.81
2023-04-30T06:28:43.375Z,25.80
2023-04-30T06:29:13.778Z,25.77
2023-04-30T06:29:44.202Z,25.74
2023-04-30T06:30:14.628Z,25.74
2023-04-30T06:30:45.055Z,25.75
2023-04-30T06:31:15.504Z,25.74
2023-04-30T06:31:45.991Z,25.74